Portada
METAR-TAF:

METAR-TAF

Aeroports :

Eastman, Geòrgia, Estats Units d'Amèrica

latitud: 32-12-59N, longitud: 083-07-43W, altitud: 93 m

Observació

L'informe es va fer fa 19 minuts, a les 10:15 UTC
Vent calma
Temperatura 18°C
Humitat 100%
Pressió 1015 hPa
Visibilitat: 4.0 km
Cel clar
boirina

METAR: KEZM 211015Z AUTO 00000KT 2 1/2SM BR CLR 18/18 A2998 RMK AO2 T01800179

Hora: 06:34 (10:34 UTC)


TAF: manca

Observacions i pronòstics meteorològics de més de 4000 aeroports (METAR i TAF).

Les estacions disponibles són els punts grocs i vermells al mapa.

Posi el ratolí al punt desitjat per veure el nom de l'estació.

Feu clic per veure les observacions i els pronòstics meteorològics.

Per canviar el mapa: feu clic els botons verds amb una creu de color negre per apropar; al botó verd amb un guió per allunyar la imatge; o en les fletxes verdes per a mapes adjacents.


METAR-TAF: